createdAt,value
2019-02-25T00:00:11.952Z,8.33
2019-02-25T00:01:12.000Z,8.30
2019-02-25T00:02:12.044Z,8.30
2019-02-25T00:03:12.007Z,8.33
2019-02-25T00:04:11.933Z,8.36
2019-02-25T00:05:11.884Z,8.37
2019-02-25T00:06:11.880Z,8.33
2019-02-25T00:07:11.871Z,8.41
2019-02-25T00:08:11.920Z,8.41
2019-02-25T00:09:11.865Z,8.37
2019-02-25T00:10:11.844Z,8.44
2019-02-25T00:11:13.237Z,8.42
2019-02-25T00:12:12.048Z,8.42
2019-02-25T00:13:11.819Z,8.37
2019-02-25T00:14:11.880Z,8.41
2019-02-25T00:15:12.045Z,8.44
2019-02-25T00:16:12.733Z,8.44
2019-02-25T00:17:11.773Z,8.45
2019-02-25T00:18:11.757Z,8.41
2019-02-25T00:19:11.742Z,8.46
2019-02-25T00:20:11.791Z,8.49
2019-02-25T00:21:11.725Z,8.53
2019-02-25T00:22:11.705Z,8.46
2019-02-25T00:23:11.700Z,8.53
2019-02-25T00:24:11.685Z,8.52
2019-02-25T00:25:11.680Z,8.53
2019-02-25T00:26:11.714Z,8.55
2019-02-25T00:27:11.747Z,8.48
2019-02-25T00:28:11.667Z,8.51
2019-02-25T00:29:11.650Z,8.49
2019-02-25T00:30:11.613Z,8.42
2019-02-25T00:31:11.629Z,8.41
2019-02-25T00:32:11.619Z,8.31
2019-02-25T00:33:11.624Z,8.28
2019-02-25T00:34:11.582Z,8.24
2019-02-25T00:35:11.572Z,8.23
2019-02-25T00:36:11.557Z,8.23
2019-02-25T00:37:11.562Z,8.30
2019-02-25T00:38:11.564Z,8.28
2019-02-25T00:39:11.536Z,8.18
2019-02-25T00:40:11.527Z,8.24
2019-02-25T00:41:11.500Z,8.23
2019-02-25T00:42:11.491Z,8.18
2019-02-25T00:43:11.517Z,8.13
2019-02-25T00:44:11.465Z,8.01
2019-02-25T00:45:11.458Z,7.93
2019-02-25T00:46:11.451Z,7.94
2019-02-25T00:47:11.448Z,7.88
2019-02-25T00:48:11.424Z,7.94
2019-02-25T00:49:11.484Z,7.98
2019-02-25T00:50:11.407Z,8.06
2019-02-25T00:51:11.398Z,8.10
2019-02-25T00:52:11.387Z,8.09
2019-02-25T00:53:11.368Z,8.15
2019-02-25T00:54:11.357Z,8.15
2019-02-25T00:55:11.392Z,8.15
2019-02-25T00:56:11.423Z,8.10
2019-02-25T00:57:11.386Z,8.19
2019-02-25T00:58:11.324Z,8.16
2019-02-25T00:59:11.315Z,8.18
2019-02-25T01:00:11.324Z,8.16
2019-02-25T01:01:11.293Z,8.20
2019-02-25T01:02:11.278Z,8.28
2019-02-25T01:03:11.285Z,8.24
2019-02-25T01:04:11.260Z,8.18
2019-02-25T01:05:11.272Z,8.30
2019-02-25T01:06:11.233Z,8.28
2019-02-25T01:07:11.217Z,8.23
2019-02-25T01:08:11.227Z,8.24
2019-02-25T01:09:11.205Z,8.12
2019-02-25T01:10:11.190Z,8.18
2019-02-25T01:11:11.219Z,8.16
2019-02-25T01:12:11.176Z,8.13
2019-02-25T01:13:11.150Z,8.10
2019-02-25T01:14:11.139Z,8.05
2019-02-25T01:15:11.134Z,8.09
2019-02-25T01:16:11.268Z,8.10
2019-02-25T01:17:11.111Z,8.01
2019-02-25T01:18:11.112Z,8.06
2019-02-25T01:19:11.086Z,8.03
2019-02-25T01:20:11.086Z,8.05
2019-02-25T01:21:11.103Z,8.08
2019-02-25T01:22:11.065Z,8.08
2019-02-25T01:23:11.051Z,8.05
2019-02-25T01:24:11.043Z,8.09
2019-02-25T01:25:11.027Z,8.10
2019-02-25T01:26:11.063Z,8.13
2019-02-25T01:27:11.002Z,8.09
2019-02-25T01:28:10.999Z,8.10
2019-02-25T01:29:10.984Z,8.08
2019-02-25T01:30:10.973Z,8.10
2019-02-25T01:31:10.959Z,8.12
2019-02-25T01:32:10.976Z,8.09
2019-02-25T01:33:10.934Z,8.03
2019-02-25T01:34:10.920Z,8.06
2019-02-25T01:35:10.929Z,8.09
2019-02-25T01:36:10.919Z,8.05
2019-02-25T01:37:10.954Z,8.09
2019-02-25T01:38:10.923Z,8.09
2019-02-25T01:39:10.876Z,8.05
2019-02-25T01:40:10.886Z,8.05
2019-02-25T01:41:10.879Z,8.05
2019-02-25T01:42:10.842Z,8.00
2019-02-25T01:43:10.896Z,8.10
2019-02-25T01:44:10.826Z,8.09
2019-02-25T01:45:10.807Z,8.05
2019-02-25T01:46:10.832Z,8.03
2019-02-25T01:47:10.781Z,8.06
2019-02-25T01:48:10.811Z,8.06
2019-02-25T01:49:10.770Z,8.08
2019-02-25T01:50:10.761Z,8.10
2019-02-25T01:51:10.743Z,8.15
2019-02-25T01:52:10.774Z,8.05
2019-02-25T01:53:10.756Z,8.08
2019-02-25T01:54:10.715Z,8.00
2019-02-25T01:55:10.704Z,8.09
2019-02-25T01:56:10.689Z,8.09
2019-02-25T01:57:10.677Z,8.08
2019-02-25T01:58:10.675Z,8.10
2019-02-25T01:59:10.697Z,8.01
2019-02-25T02:00:10.656Z,8.06
2019-02-25T02:01:10.636Z,8.00
2019-02-25T02:02:10.648Z,7.94
2019-02-25T02:03:10.627Z,7.87
2019-02-25T02:04:10.694Z,7.85
2019-02-25T02:05:10.635Z,7.93
2019-02-25T02:06:10.594Z,7.83
2019-02-25T02:07:10.569Z,7.80
2019-02-25T02:08:10.571Z,7.82
2019-02-25T02:09:10.549Z,7.70
2019-02-25T02:10:10.533Z,7.79
2019-02-25T02:11:10.565Z,7.75
2019-02-25T02:12:10.518Z,7.70
2019-02-25T02:13:14.241Z,7.72
2019-02-25T02:14:10.509Z,7.60
2019-02-25T02:15:10.554Z,7.56
2019-02-25T02:16:10.481Z,7.58
2019-02-25T02:17:10.460Z,7.43
2019-02-25T02:18:10.483Z,7.51
2019-02-25T02:19:10.436Z,7.45
2019-02-25T02:20:10.457Z,7.45
2019-02-25T02:21:10.440Z,7.48
2019-02-25T02:22:10.407Z,7.43
2019-02-25T02:23:10.392Z,7.39
2019-02-25T02:24:10.387Z,7.31
2019-02-25T02:25:10.425Z,7.25
2019-02-25T02:26:10.396Z,7.21
2019-02-25T02:27:10.375Z,7.24
2019-02-25T02:28:10.459Z,7.33
2019-02-25T02:29:10.328Z,7.21
2019-02-25T02:30:10.345Z,7.33
2019-02-25T02:31:10.304Z,7.32
2019-02-25T02:32:10.299Z,7.33
2019-02-25T02:33:10.334Z,7.36
2019-02-25T02:34:10.288Z,7.33
2019-02-25T02:35:10.271Z,7.32
2019-02-25T02:36:11.713Z,7.29
2019-02-25T02:37:10.248Z,7.32
2019-02-25T02:38:10.234Z,7.32
2019-02-25T02:39:10.244Z,7.36
2019-02-25T02:40:10.216Z,7.33
2019-02-25T02:41:10.234Z,7.36
2019-02-25T02:42:10.186Z,7.47
2019-02-25T02:43:10.179Z,7.38
2019-02-25T02:44:10.170Z,7.51
2019-02-25T02:45:10.198Z,7.53
2019-02-25T02:46:10.180Z,7.57
2019-02-25T02:47:10.138Z,7.56
2019-02-25T02:48:10.129Z,7.54
2019-02-25T02:49:10.130Z,7.57
2019-02-25T02:50:10.100Z,7.66
2019-02-25T02:51:10.132Z,7.67
2019-02-25T02:52:10.080Z,7.63
2019-02-25T02:53:10.100Z,7.57
2019-02-25T02:54:10.062Z,7.63
2019-02-25T02:55:10.198Z,7.60
2019-02-25T02:56:10.075Z,7.61
2019-02-25T02:57:10.030Z,7.70
2019-02-25T02:58:10.026Z,7.58
2019-02-25T02:59:10.071Z,7.60
2019-02-25T03:00:10.000Z,7.70
2019-02-25T03:01:09.998Z,7.61
2019-02-25T03:02:10.007Z,7.66
2019-02-25T03:03:09.963Z,7.69
2019-02-25T03:04:09.954Z,7.70
2019-02-25T03:05:09.957Z,7.67
2019-02-25T03:06:09.938Z,7.75
2019-02-25T03:07:09.954Z,7.77
2019-02-25T03:08:09.909Z,7.73
2019-02-25T03:09:09.897Z,7.70
2019-02-25T03:10:09.884Z,7.69
2019-02-25T03:11:09.879Z,7.60
2019-02-25T03:12:09.897Z,7.54
2019-02-25T03:13:09.853Z,7.57
2019-02-25T03:14:09.841Z,7.51
2019-02-25T03:15:09.827Z,7.53
2019-02-25T03:16:09.821Z,7.48
2019-02-25T03:17:09.850Z,7.60
2019-02-25T03:18:09.803Z,7.57
2019-02-25T03:19:09.799Z,7.60
2019-02-25T03:20:09.782Z,7.51
2019-02-25T03:21:09.767Z,7.58
2019-02-25T03:22:09.758Z,7.54
2019-02-25T03:23:09.785Z,7.60
2019-02-25T03:24:09.734Z,7.51
2019-02-25T03:25:09.730Z,7.56
2019-02-25T03:26:09.717Z,7.63
2019-02-25T03:27:09.705Z,7.60
2019-02-25T03:28:09.720Z,7.66
2019-02-25T03:29:09.806Z,7.61
2019-02-25T03:30:09.677Z,7.58
2019-02-25T03:31:09.671Z,7.63
2019-02-25T03:32:09.655Z,7.58
2019-02-25T03:33:09.639Z,7.56
2019-02-25T03:34:09.664Z,7.56
2019-02-25T03:35:09.614Z,7.57
2019-02-25T03:36:09.604Z,7.67
2019-02-25T03:37:09.599Z,7.60
2019-02-25T03:38:09.592Z,7.66
2019-02-25T03:39:09.575Z,7.63
2019-02-25T03:40:09.592Z,7.69
2019-02-25T03:41:09.567Z,7.61
2019-02-25T03:42:09.573Z,7.66
2019-02-25T03:43:09.534Z,7.57
2019-02-25T03:44:09.525Z,7.53
2019-02-25T03:45:09.529Z,7.51
2019-02-25T03:46:09.560Z,7.61
2019-02-25T03:47:09.484Z,7.51
2019-02-25T03:48:09.473Z,7.56
2019-02-25T03:49:09.467Z,7.57
2019-02-25T03:50:09.507Z,7.47
2019-02-25T03:51:09.468Z,7.60
2019-02-25T03:52:09.435Z,7.45
2019-02-25T03:53:09.453Z,7.45
2019-02-25T03:54:09.405Z,7.50
2019-02-25T03:55:09.415Z,7.40
2019-02-25T03:56:09.428Z,7.56
2019-02-25T03:57:09.392Z,7.51
2019-02-25T03:58:09.391Z,7.50
2019-02-25T03:59:09.356Z,7.47
2019-02-25T04:00:09.349Z,7.45
2019-02-25T04:01:09.337Z,7.58
2019-02-25T04:02:09.394Z,7.53
2019-02-25T04:03:09.321Z,7.48
2019-02-25T04:04:09.324Z,7.47
2019-02-25T04:05:09.291Z,7.48
2019-02-25T04:06:09.278Z,7.43
2019-02-25T04:07:09.327Z,7.51
2019-02-25T04:08:09.342Z,7.42
2019-02-25T04:09:09.265Z,7.39
2019-02-25T04:10:09.262Z,7.47
2019-02-25T04:11:09.232Z,7.42
2019-02-25T04:12:09.283Z,7.42
2019-02-25T04:13:09.207Z,7.47
2019-02-25T04:14:09.529Z,7.39
2019-02-25T04:15:09.189Z,7.43
2019-02-25T04:16:09.181Z,7.42
2019-02-25T04:17:09.166Z,7.39
2019-02-25T04:18:09.180Z,7.45
2019-02-25T04:19:09.153Z,7.39
2019-02-25T04:20:09.128Z,7.35
2019-02-25T04:21:09.122Z,7.40
2019-02-25T04:22:09.144Z,7.38
2019-02-25T04:23:09.119Z,7.40
2019-02-25T04:24:09.091Z,7.38
2019-02-25T04:25:09.090Z,7.36
2019-02-25T04:26:09.069Z,7.33
2019-02-25T04:27:09.103Z,7.40
2019-02-25T04:28:09.104Z,7.36
2019-02-25T04:29:09.036Z,7.36
2019-02-25T04:30:09.022Z,7.28
2019-02-25T04:31:09.009Z,7.33
2019-02-25T04:32:09.039Z,7.33
2019-02-25T04:33:08.994Z,7.21
2019-02-25T04:34:09.018Z,7.25
2019-02-25T04:35:08.973Z,7.25
2019-02-25T04:36:08.962Z,7.29
2019-02-25T04:37:08.972Z,7.23
2019-02-25T04:38:08.970Z,7.25
2019-02-25T04:39:08.928Z,7.21
2019-02-25T04:40:08.945Z,7.23
2019-02-25T04:41:08.929Z,7.21
2019-02-25T04:42:08.896Z,7.17
2019-02-25T04:43:08.925Z,7.28
2019-02-25T04:44:08.882Z,7.24
2019-02-25T04:45:08.886Z,7.29
2019-02-25T04:46:08.882Z,7.31
2019-02-25T04:47:08.853Z,7.20
2019-02-25T04:48:08.966Z,7.20
2019-02-25T04:49:08.814Z,7.20
2019-02-25T04:50:08.804Z,7.21
2019-02-25T04:51:08.796Z,7.17
2019-02-25T04:52:08.837Z,7.21
2019-02-25T04:53:08.780Z,7.21
2019-02-25T04:54:08.783Z,7.21
2019-02-25T04:55:08.755Z,7.23
2019-02-25T04:56:08.749Z,7.20
2019-02-25T04:57:08.758Z,7.18
2019-02-25T04:58:08.761Z,7.17
2019-02-25T04:59:16.795Z,7.20
2019-02-25T05:00:08.704Z,7.21
2019-02-25T05:01:08.682Z,7.21
2019-02-25T05:02:08.721Z,7.20
2019-02-25T05:03:08.663Z,7.21
2019-02-25T05:04:08.653Z,7.23
2019-02-25T05:05:08.645Z,7.18
2019-02-25T05:06:08.633Z,7.15
2019-02-25T05:07:08.626Z,7.21
2019-02-25T05:08:08.656Z,7.20
2019-02-25T05:09:08.595Z,7.21
2019-02-25T05:10:08.593Z,7.18
2019-02-25T05:11:08.577Z,7.20
2019-02-25T05:12:08.573Z,7.21
2019-02-25T05:13:08.556Z,7.18
2019-02-25T05:14:08.586Z,7.20
2019-02-25T05:15:08.531Z,7.21
2019-02-25T05:16:08.519Z,7.15
2019-02-25T05:17:08.514Z,7.17
2019-02-25T05:18:08.507Z,7.15
2019-02-25T05:19:08.550Z,7.11
2019-02-25T05:20:08.479Z,7.15
2019-02-25T05:21:08.464Z,7.25
2019-02-25T05:22:08.451Z,7.23
2019-02-25T05:23:08.453Z,7.13
2019-02-25T05:24:08.440Z,7.18
2019-02-25T05:25:08.489Z,7.15
2019-02-25T05:26:08.419Z,7.13
2019-02-25T05:27:08.416Z,7.03
2019-02-25T05:28:08.389Z,7.00
2019-02-25T05:29:08.381Z,7.02
2019-02-25T05:30:08.844Z,7.07
2019-02-25T05:31:08.394Z,7.05
2019-02-25T05:32:08.366Z,7.07
2019-02-25T05:33:08.339Z,7.05
2019-02-25T05:34:08.336Z,7.10
2019-02-25T05:35:08.323Z,7.06
2019-02-25T05:36:08.342Z,7.02
2019-02-25T05:37:08.301Z,7.03
2019-02-25T05:38:08.292Z,7.06
2019-02-25T05:39:08.276Z,6.88
2019-02-25T05:40:08.269Z,7.00
2019-02-25T05:41:08.284Z,6.88
2019-02-25T05:42:08.242Z,6.84
2019-02-25T05:43:08.241Z,6.89
2019-02-25T05:44:08.603Z,6.88
2019-02-25T05:45:08.221Z,6.82
2019-02-25T05:46:08.249Z,6.81
2019-02-25T05:47:08.192Z,6.78
2019-02-25T05:48:08.209Z,6.75
2019-02-25T05:49:08.176Z,6.77
2019-02-25T05:50:08.166Z,6.78
2019-02-25T05:51:08.148Z,6.79
2019-02-25T05:52:08.179Z,6.77
2019-02-25T05:53:08.130Z,6.85
2019-02-25T05:54:08.120Z,6.84
2019-02-25T05:55:08.112Z,6.87
2019-02-25T05:56:08.104Z,6.92
2019-02-25T05:57:08.130Z,6.92
2019-02-25T05:58:08.080Z,6.96
2019-02-25T05:59:08.075Z,6.88
2019-02-25T06:00:08.057Z,6.87
2019-02-25T06:01:08.045Z,6.87
2019-02-25T06:02:08.036Z,6.85
2019-02-25T06:03:08.083Z,6.97
2019-02-25T06:04:08.021Z,6.95
2019-02-25T06:05:08.009Z,6.93
2019-02-25T06:06:16.902Z,6.88
2019-02-25T06:07:07.987Z,6.89
2019-02-25T06:08:08.008Z,6.82
2019-02-25T06:09:07.965Z,6.85
2019-02-25T06:10:07.982Z,6.82
2019-02-25T06:11:07.941Z,6.84
2019-02-25T06:12:07.929Z,6.81
2019-02-25T06:13:07.925Z,6.81
2019-02-25T06:14:07.955Z,6.85
2019-02-25T06:15:07.903Z,6.84
2019-02-25T06:16:07.894Z,6.88
2019-02-25T06:17:07.875Z,6.81
2019-02-25T06:18:07.871Z,6.81
2019-02-25T06:19:07.866Z,6.82
2019-02-25T06:20:07.882Z,6.82
2019-02-25T06:21:07.839Z,6.82
2019-02-25T06:22:07.826Z,6.79
2019-02-25T06:23:07.827Z,6.75
2019-02-25T06:24:07.807Z,6.74
2019-02-25T06:25:07.805Z,6.62
2019-02-25T06:26:07.825Z,6.62
2019-02-25T06:27:07.779Z,6.62
2019-02-25T06:28:07.770Z,6.52
2019-02-25T06:29:07.753Z,6.54
2019-02-25T06:30:07.740Z,6.60
2019-02-25T06:31:07.779Z,6.49
2019-02-25T06:32:07.731Z,6.59
2019-02-25T06:33:07.716Z,6.63
2019-02-25T06:34:07.703Z,6.63
2019-02-25T06:35:07.688Z,6.59
2019-02-25T06:36:07.740Z,6.69
2019-02-25T06:37:07.675Z,6.74
2019-02-25T06:38:07.664Z,6.75
2019-02-25T06:39:07.655Z,6.70
2019-02-25T06:40:07.666Z,6.78
2019-02-25T06:41:07.626Z,6.64
2019-02-25T06:42:07.667Z,6.72
2019-02-25T06:43:07.600Z,6.69
2019-02-25T06:44:07.598Z,6.67
2019-02-25T06:45:07.589Z,6.81
2019-02-25T06:46:07.579Z,6.79
2019-02-25T06:47:07.568Z,6.78
2019-02-25T06:48:07.595Z,6.75
2019-02-25T06:49:07.543Z,6.72
2019-02-25T06:50:07.532Z,6.82
2019-02-25T06:51:07.538Z,6.84
2019-02-25T06:52:07.514Z,6.79
2019-02-25T06:53:07.550Z,6.84
2019-02-25T06:54:07.488Z,6.88
2019-02-25T06:55:07.480Z,6.89
2019-02-25T06:56:07.474Z,6.92
2019-02-25T06:57:07.475Z,7.00
2019-02-25T06:58:07.476Z,6.95
2019-02-25T06:59:07.487Z,6.97
2019-02-25T07:00:07.428Z,6.97
2019-02-25T07:01:07.413Z,7.02
2019-02-25T07:02:07.403Z,6.99
2019-02-25T07:03:07.394Z,6.93
2019-02-25T07:04:07.391Z,7.00
2019-02-25T07:05:07.425Z,7.00
2019-02-25T07:06:07.376Z,7.02
2019-02-25T07:07:07.424Z,7.00
2019-02-25T07:08:07.408Z,7.00
2019-02-25T07:09:07.339Z,7.10
2019-02-25T07:10:07.411Z,7.06
2019-02-25T07:11:07.313Z,7.14
2019-02-25T07:12:07.324Z,7.11
2019-02-25T07:13:07.288Z,7.14
2019-02-25T07:14:07.291Z,7.17
2019-02-25T07:15:07.273Z,7.20
2019-02-25T07:16:07.284Z,7.21
2019-02-25T07:17:07.252Z,7.29
2019-02-25T07:18:07.251Z,7.24
2019-02-25T07:19:07.229Z,7.29
2019-02-25T07:20:07.218Z,7.39
2019-02-25T07:21:07.213Z,7.39
2019-02-25T07:22:07.227Z,7.39
2019-02-25T07:23:07.182Z,7.40
2019-02-25T07:24:07.197Z,7.48
2019-02-25T07:25:07.266Z,7.54
2019-02-25T07:26:07.144Z,7.54
2019-02-25T07:27:07.133Z,7.61
2019-02-25T07:28:07.156Z,7.47
2019-02-25T07:29:07.118Z,7.54
2019-02-25T07:30:07.130Z,7.58
2019-02-25T07:31:07.101Z,7.67
2019-02-25T07:32:07.096Z,7.67
2019-02-25T07:33:07.069Z,7.58
2019-02-25T07:34:07.154Z,7.73
2019-02-25T07:35:07.057Z,7.77
2019-02-25T07:36:07.038Z,7.75
2019-02-25T07:37:07.035Z,7.85
2019-02-25T07:38:07.081Z,7.91
2019-02-25T07:39:07.005Z,7.93
2019-02-25T07:40:07.022Z,8.00
2019-02-25T07:41:06.990Z,8.08
2019-02-25T07:42:06.979Z,7.95
2019-02-25T07:43:06.969Z,8.12
2019-02-25T07:44:06.962Z,8.10
2019-02-25T07:45:06.973Z,8.10
2019-02-25T07:46:06.993Z,8.23
2019-02-25T07:47:06.917Z,8.34
2019-02-25T07:48:06.912Z,8.37
2019-02-25T07:49:06.910Z,8.45
2019-02-25T07:50:06.894Z,8.53
2019-02-25T07:51:06.923Z,8.53
2019-02-25T07:52:06.879Z,8.61
2019-02-25T07:53:06.859Z,8.71
2019-02-25T07:54:07.008Z,8.78
2019-02-25T07:55:06.842Z,8.74
2019-02-25T07:56:06.861Z,8.87
2019-02-25T07:57:06.815Z,8.85
2019-02-25T07:58:06.802Z,8.89
2019-02-25T07:59:06.799Z,9.03
2019-02-25T08:00:06.784Z,9.06
2019-02-25T08:01:06.808Z,9.13
2019-02-25T08:02:06.767Z,9.06
2019-02-25T08:03:06.761Z,9.04
2019-02-25T08:04:06.745Z,9.04
2019-02-25T08:05:06.730Z,9.22
2019-02-25T08:06:06.760Z,9.31
2019-02-25T08:07:07.115Z,9.37
2019-02-25T08:08:06.696Z,9.46
2019-02-25T08:09:06.709Z,9.40
2019-02-25T08:10:06.683Z,9.55
2019-02-25T08:11:06.665Z,9.61
2019-02-25T08:12:06.684Z,9.59
2019-02-25T08:13:06.647Z,9.64
2019-02-25T08:14:06.640Z,9.69
2019-02-25T08:15:06.628Z,9.73
2019-02-25T08:16:06.643Z,9.77
2019-02-25T08:17:06.606Z,9.82
2019-02-25T08:18:06.595Z,9.86
2019-02-25T08:19:06.587Z,9.97
2019-02-25T08:20:06.663Z,9.97
2019-02-25T08:21:06.655Z,9.99
2019-02-25T08:22:06.594Z,9.99
2019-02-25T08:23:06.553Z,10.09
2019-02-25T08:24:06.575Z,10.10
2019-02-25T08:25:06.531Z,10.13
2019-02-25T08:26:06.510Z,10.15
2019-02-25T08:27:06.583Z,10.23
2019-02-25T08:28:06.493Z,10.26
2019-02-25T08:29:06.547Z,10.35
2019-02-25T08:30:06.476Z,10.33
2019-02-25T08:31:06.455Z,10.46
2019-02-25T08:32:06.444Z,10.37
2019-02-25T08:33:06.481Z,10.30
2019-02-25T08:34:06.442Z,10.44
2019-02-25T08:35:06.438Z,10.38
2019-02-25T08:36:06.400Z,10.44
2019-02-25T08:37:06.393Z,10.57
2019-02-25T08:38:06.439Z,10.57
2019-02-25T08:39:06.373Z,10.57
2019-02-25T08:40:06.391Z,10.71
2019-02-25T08:41:06.343Z,10.68
2019-02-25T08:42:06.336Z,10.84
2019-02-25T08:43:06.331Z,10.87
2019-02-25T08:44:06.375Z,10.90
2019-02-25T08:45:06.308Z,11.08
2019-02-25T08:46:06.300Z,11.19
2019-02-25T08:47:06.314Z,11.40
2019-02-25T08:48:06.275Z,11.52
2019-02-25T08:49:06.341Z,11.63
2019-02-25T08:50:06.284Z,11.83
2019-02-25T08:51:06.247Z,12.22
2019-02-25T08:52:06.242Z,12.93
2019-02-25T08:53:06.228Z,13.99
2019-02-25T08:54:06.214Z,15.28
2019-02-25T08:55:06.220Z,16.65
2019-02-25T08:56:06.183Z,17.68
2019-02-25T08:57:06.182Z,18.70
2019-02-25T08:58:06.169Z,19.30
2019-02-25T08:59:06.149Z,19.79
2019-02-25T09:00:06.169Z,20.40
2019-02-25T09:01:06.157Z,21.09
2019-02-25T09:02:06.233Z,21.73
2019-02-25T09:03:06.116Z,22.39
2019-02-25T09:04:06.106Z,23.13
2019-02-25T09:05:06.085Z,23.54
2019-02-25T09:06:06.116Z,23.47
2019-02-25T09:07:06.072Z,23.46
2019-02-25T09:08:06.057Z,23.71
2019-02-25T09:09:06.052Z,24.24
2019-02-25T09:10:06.105Z,24.70
2019-02-25T09:11:13.953Z,25.21
2019-02-25T09:12:07.097Z,25.75
2019-02-25T09:13:06.060Z,26.26
2019-02-25T09:14:05.995Z,26.63
2019-02-25T09:15:06.010Z,27.15
2019-02-25T09:16:05.981Z,27.32
2019-02-25T09:17:06.002Z,27.65
2019-02-25T09:18:06.001Z,27.89
2019-02-25T09:19:05.941Z,28.29
2019-02-25T09:20:05.964Z,28.51
2019-02-25T09:21:08.037Z,28.82
2019-02-25T09:22:05.941Z,29.07
2019-02-25T09:23:05.930Z,29.16
2019-02-25T09:24:05.917Z,29.13
2019-02-25T09:25:05.901Z,29.12
2019-02-25T09:26:05.873Z,28.78
2019-02-25T09:27:05.885Z,28.20
2019-02-25T09:28:05.894Z,27.71
2019-02-25T09:29:05.892Z,27.30
2019-02-25T09:30:05.849Z,26.78
2019-02-25T09:31:05.847Z,26.18
2019-02-25T09:32:05.811Z,25.77
2019-02-25T09:33:05.845Z,25.21
2019-02-25T09:34:05.802Z,24.65
2019-02-25T09:35:05.814Z,24.23
2019-02-25T09:36:05.774Z,24.10
2019-02-25T09:37:05.760Z,24.61
2019-02-25T09:38:05.777Z,24.63
2019-02-25T09:39:05.743Z,24.70
2019-02-25T09:40:05.733Z,24.39
2019-02-25T09:41:05.721Z,23.69
2019-02-25T09:42:05.748Z,23.08
2019-02-25T09:43:05.723Z,22.60
2019-02-25T09:44:05.698Z,22.14
2019-02-25T09:45:05.670Z,21.75
2019-02-25T09:46:05.659Z,21.75
2019-02-25T09:47:05.659Z,22.10
2019-02-25T09:48:05.677Z,21.98
2019-02-25T09:49:05.637Z,21.51
2019-02-25T09:50:05.623Z,20.92
2019-02-25T09:51:05.626Z,20.47
2019-02-25T09:52:05.595Z,20.26
2019-02-25T09:53:07.275Z,20.40
2019-02-25T09:54:05.606Z,20.51
2019-02-25T09:55:05.573Z,20.43
2019-02-25T09:56:05.575Z,20.75
2019-02-25T09:57:05.550Z,21.35
2019-02-25T09:58:05.547Z,21.76
2019-02-25T09:59:05.595Z,22.33
2019-02-25T10:00:05.512Z,22.93
2019-02-25T10:01:05.509Z,23.50
2019-02-25T10:02:05.545Z,24.06
2019-02-25T10:03:05.521Z,24.63
2019-02-25T10:04:05.471Z,24.89
2019-02-25T10:05:05.511Z,25.10
2019-02-25T10:06:05.455Z,25.55
2019-02-25T10:07:05.444Z,26.06
2019-02-25T10:08:05.434Z,25.99
2019-02-25T10:09:05.417Z,26.44
2019-02-25T10:10:05.416Z,26.60
2019-02-25T10:11:05.427Z,26.65
2019-02-25T10:12:05.385Z,26.70
2019-02-25T10:13:05.382Z,26.89
2019-02-25T10:14:05.372Z,26.62
2019-02-25T10:15:05.365Z,26.23
2019-02-25T10:16:05.397Z,25.65
2019-02-25T10:17:05.344Z,25.06
2019-02-25T10:18:05.326Z,24.58
2019-02-25T10:19:05.320Z,23.98
2019-02-25T10:20:05.336Z,23.31
2019-02-25T10:21:05.326Z,22.66
2019-02-25T10:22:05.283Z,22.11
2019-02-25T10:23:05.315Z,21.64
2019-02-25T10:24:05.264Z,21.24
2019-02-25T10:25:05.266Z,20.77
2019-02-25T10:26:05.276Z,20.55
2019-02-25T10:27:05.238Z,20.29
2019-02-25T10:28:05.229Z,20.03
2019-02-25T10:29:05.208Z,19.82
2019-02-25T10:30:05.201Z,19.56
2019-02-25T10:31:05.189Z,19.49
2019-02-25T10:32:06.586Z,19.29
2019-02-25T10:33:05.179Z,19.24
2019-02-25T10:34:05.166Z,19.16
2019-02-25T10:35:05.152Z,19.08
2019-02-25T10:36:05.137Z,18.92
2019-02-25T10:37:05.134Z,18.95
2019-02-25T10:38:05.147Z,18.81
2019-02-25T10:39:05.117Z,18.75
2019-02-25T10:40:05.104Z,18.81
2019-02-25T10:41:05.085Z,18.63
2019-02-25T10:42:05.074Z,18.43
2019-02-25T10:43:05.090Z,18.26
2019-02-25T10:44:06.535Z,18.22
2019-02-25T10:45:06.806Z,18.26
2019-02-25T10:46:06.800Z,18.10
2019-02-25T10:47:05.061Z,18.04
2019-02-25T10:48:05.052Z,17.92
2019-02-25T10:49:11.403Z,18.03
2019-02-25T10:50:07.432Z,17.94
2019-02-25T10:51:07.009Z,17.95
2019-02-25T10:52:06.570Z,18.03
2019-02-25T10:53:04.973Z,18.04
2019-02-25T10:54:04.981Z,17.90
2019-02-25T10:55:04.948Z,18.04
2019-02-25T10:56:04.928Z,18.01
2019-02-25T10:57:04.930Z,17.97
2019-02-25T10:58:04.912Z,17.83
2019-02-25T10:59:06.214Z,17.76
2019-02-25T11:00:13.874Z,17.70
2019-02-25T11:01:04.870Z,17.65
2019-02-25T11:02:04.863Z,17.64
2019-02-25T11:03:04.856Z,17.46
2019-02-25T11:04:04.874Z,17.52
2019-02-25T11:05:04.827Z,17.51
2019-02-25T11:06:04.820Z,17.46
2019-02-25T11:07:05.701Z,17.38
2019-02-25T11:08:05.384Z,17.23
2019-02-25T11:09:04.819Z,17.11
2019-02-25T11:10:04.808Z,17.12
2019-02-25T11:11:04.795Z,17.15
2019-02-25T11:12:04.754Z,17.09
2019-02-25T11:13:04.741Z,17.14
2019-02-25T11:14:05.555Z,17.12
2019-02-25T11:15:05.743Z,17.06
2019-02-25T11:16:04.741Z,17.15
2019-02-25T11:17:04.736Z,17.09
2019-02-25T11:18:04.692Z,17.01
2019-02-25T11:19:04.676Z,17.14
2019-02-25T11:20:05.708Z,17.05
2019-02-25T11:21:06.128Z,17.02
2019-02-25T11:22:05.560Z,17.06
2019-02-25T11:23:04.635Z,17.04
2019-02-25T11:24:04.645Z,17.04
2019-02-25T11:25:04.618Z,17.16
2019-02-25T11:26:04.636Z,17.15
2019-02-25T11:27:05.243Z,17.12
2019-02-25T11:28:05.447Z,17.11
2019-02-25T11:29:05.619Z,17.12
2019-02-25T11:30:04.604Z,17.11
2019-02-25T11:31:04.577Z,17.01
2019-02-25T11:32:04.542Z,17.04
2019-02-25T11:33:04.529Z,16.91
2019-02-25T11:34:05.700Z,17.01
2019-02-25T11:35:06.206Z,16.96
2019-02-25T11:36:04.542Z,17.04
2019-02-25T11:37:04.490Z,17.02
2019-02-25T11:38:04.488Z,17.05
2019-02-25T11:39:05.135Z,16.99
2019-02-25T11:40:04.490Z,17.12
2019-02-25T11:41:06.584Z,17.12
2019-02-25T11:42:06.119Z,17.05
2019-02-25T11:43:04.423Z,17.02
2019-02-25T11:44:04.414Z,17.04
2019-02-25T11:45:04.625Z,17.16
2019-02-25T11:46:04.394Z,17.11
2019-02-25T11:47:04.427Z,17.20
2019-02-25T11:48:04.377Z,17.02
2019-02-25T11:49:04.367Z,17.12
2019-02-25T11:50:04.356Z,17.19
2019-02-25T11:51:04.363Z,17.22
2019-02-25T11:52:04.326Z,17.26
2019-02-25T11:53:04.346Z,17.24
2019-02-25T11:54:04.315Z,17.24
2019-02-25T11:55:04.294Z,17.30
2019-02-25T11:56:04.283Z,17.26
2019-02-25T11:57:04.283Z,17.36
2019-02-25T11:58:04.303Z,17.41
2019-02-25T11:59:04.266Z,17.42
2019-02-25T12:00:04.246Z,17.42
2019-02-25T12:01:04.237Z,17.42
2019-02-25T12:02:04.225Z,17.36
2019-02-25T12:03:04.250Z,17.27
2019-02-25T12:04:04.208Z,17.29
2019-02-25T12:05:04.192Z,17.27
2019-02-25T12:06:04.191Z,17.16
2019-02-25T12:07:04.170Z,17.19
2019-02-25T12:08:04.215Z,17.29
2019-02-25T12:09:04.145Z,17.26
2019-02-25T12:10:04.134Z,17.24
2019-02-25T12:11:04.138Z,17.15
2019-02-25T12:12:04.121Z,17.19
2019-02-25T12:13:04.107Z,17.12
2019-02-25T12:14:04.135Z,17.16
2019-02-25T12:15:04.079Z,17.15
2019-02-25T12:16:04.120Z,17.11
2019-02-25T12:17:04.058Z,17.05
2019-02-25T12:18:04.090Z,17.06
2019-02-25T12:19:04.046Z,17.04
2019-02-25T12:20:04.032Z,17.06
2019-02-25T12:21:04.023Z,16.97
2019-02-25T12:22:04.011Z,16.90
2019-02-25T12:23:04.029Z,16.91
2019-02-25T12:24:03.984Z,16.76
2019-02-25T12:25:03.980Z,16.76
2019-02-25T12:26:03.968Z,16.76
2019-02-25T12:27:03.958Z,16.74
2019-02-25T12:28:04.108Z,16.71
2019-02-25T12:29:10.599Z,16.78
2019-02-25T12:30:04.917Z,16.83
2019-02-25T12:31:03.923Z,16.78
2019-02-25T12:32:03.906Z,16.83
2019-02-25T12:33:03.897Z,16.81
2019-02-25T12:34:03.934Z,16.89
2019-02-25T12:35:03.864Z,16.93
2019-02-25T12:36:03.853Z,16.94
2019-02-25T12:37:03.843Z,16.96
2019-02-25T12:38:03.839Z,16.87
2019-02-25T12:39:03.829Z,16.84
2019-02-25T12:40:03.854Z,16.90
2019-02-25T12:41:03.798Z,16.81
2019-02-25T12:42:03.790Z,16.81
2019-02-25T12:43:03.796Z,16.84
2019-02-25T12:44:03.775Z,16.79
2019-02-25T12:45:03.803Z,16.86
2019-02-25T12:46:03.756Z,16.87
2019-02-25T12:47:03.753Z,16.86
2019-02-25T12:48:03.724Z,16.87
2019-02-25T12:49:03.791Z,16.78
2019-02-25T12:50:03.704Z,16.74
2019-02-25T12:51:03.699Z,16.81
2019-02-25T12:52:03.689Z,16.89
2019-02-25T12:53:03.721Z,16.91
2019-02-25T12:54:03.670Z,16.89
2019-02-25T12:55:03.651Z,16.79
2019-02-25T12:56:03.637Z,16.79
2019-02-25T12:57:03.638Z,16.78
2019-02-25T12:58:03.624Z,16.79
2019-02-25T12:59:05.206Z,16.83
2019-02-25T13:00:03.644Z,16.86
2019-02-25T13:01:03.591Z,16.89
2019-02-25T13:02:03.575Z,16.79
2019-02-25T13:03:03.570Z,16.83
2019-02-25T13:04:03.557Z,16.75
2019-02-25T13:05:03.570Z,16.78
2019-02-25T13:06:03.539Z,16.79
2019-02-25T13:07:03.521Z,16.71
2019-02-25T13:08:03.517Z,16.68